Time;durP1;ratioP1;P1;durP2;ratioP2;P2;SDS_P1;SDS_P2;PMS_P1;PMS_P2;Temp;Humidity;BMP_temperature;BMP_pressure;BME280_temperature;BME280_humidity;BME280_pressure;Samples;Min_cycle;Max_cycle;Signal;HPM_P1;HPM_P2
2023/04/24 00:00:24;;;;;;;;;;;;;;;16.01;65.22;99398.47;1259217;23;651;-68
2023/04/24 00:01:15;;;;;;;;;;;;;;;15.90;65.22;99399.66;1259306;23;702;-69
2023/04/24 00:02:06;;;;;;;;;;;;;;;15.77;65.87;99403.84;1259550;23;638;-68
2023/04/24 00:02:57;;;;;;;;;;;;;;;15.71;66.37;99394.63;1261254;23;658;-68
2023/04/24 00:03:48;;;;;;;;;;;;;;;15.70;66.23;99411.75;1259436;23;698;-69
2023/04/24 00:04:41;;;;;;;;;;;;;;;15.59;67.10;99402.16;1259253;23;687;-69
2023/04/24 00:05:32;;;;;;;;;;;;;;;15.63;66.48;99408.88;1259110;23;631;-68
2023/04/24 00:06:23;;;;;;;;;;;;;;;15.59;66.50;99420.97;1260986;23;637;-69
2023/04/24 00:07:14;;;;;;;;;;;;;;;15.51;66.31;99420.09;1259282;23;611;-70
2023/04/24 00:08:04;;;;;;;;;;;;;;;15.49;67.07;99408.69;1259120;23;666;-70
2023/04/24 00:08:55;;;;;;;;;;;;;;;15.42;66.40;99432.66;1261639;23;1198;-70
2023/04/24 00:09:45;;;;;;;;;;;;;;;15.43;67.13;99412.84;1260496;23;626;-70
2023/04/24 00:10:35;;;;;;;;;;;;;;;15.47;66.46;99433.00;1260978;23;666;-69
2023/04/24 00:11:26;;;;;;;;;;;;;;;15.42;65.67;99418.38;1259686;23;694;-68
2023/04/24 00:12:17;;;;;;;;;;;;;;;15.49;67.45;99431.00;1260985;23;720;-70
2023/04/24 00:13:07;;;;;;;;;;;;;;;15.46;66.02;99431.31;1258885;23;654;-68
2023/04/24 00:13:57;;;;;;;;;;;;;;;15.42;66.40;99427.28;1259331;23;622;-68
2023/04/24 00:14:48;;;;;;;;;;;;;;;15.35;66.29;99430.81;1259550;23;635;-69
2023/04/24 00:15:38;;;;;;;;;;;;;;;15.32;66.50;99428.44;1259175;23;642;-70
2023/04/24 00:16:29;;;;;;;;;;;;;;;15.36;66.93;99445.91;1261323;23;641;-69
2023/04/24 00:17:20;;;;;;;;;;;;;;;15.20;66.31;99431.44;1260715;23;1905;-69
2023/04/24 00:18:10;;;;;;;;;;;;;;;15.33;67.29;99435.50;1260888;23;685;-69
2023/04/24 00:19:01;;;;;;;;;;;;;;;15.48;66.66;99445.41;1259552;23;719;-68
2023/04/24 00:19:58;;;;;;;;;;;;;;;15.42;66.62;99440.69;1259087;23;690;-68
2023/04/24 00:20:48;;;;;;;;;;;;;;;15.48;66.74;99439.22;1262037;23;646;-68
2023/04/24 00:21:38;;;;;;;;;;;;;;;15.41;65.70;99444.38;1259567;23;615;-68
2023/04/24 00:22:29;;;;;;;;;;;;;;;15.25;66.68;99447.03;1261218;23;662;-69
2023/04/24 00:23:19;;;;;;;;;;;;;;;15.25;66.57;99447.03;1261615;23;618;-68
2023/04/24 00:24:10;;;;;;;;;;;;;;;15.32;67.26;99448.06;1260774;23;714;-68
2023/04/24 00:25:00;;;;;;;;;;;;;;;15.38;66.83;99450.13;1261251;23;677;-67
2023/04/24 00:25:51;;;;;;;;;;;;;;;15.37;66.31;99464.53;1259614;23;607;-67
2023/04/24 00:26:41;;;;;;;;;;;;;;;15.22;66.65;99456.28;1260024;23;657;-68
2023/04/24 00:27:31;;;;;;;;;;;;;;;15.24;66.69;99453.41;1259137;23;626;-67
2023/04/24 00:28:22;;;;;;;;;;;;;;;15.39;66.79;99459.00;1259477;23;682;-67
2023/04/24 00:29:12;;;;;;;;;;;;;;;15.33;65.11;99463.19;1259152;23;632;-67
2023/04/24 00:30:03;;;;;;;;;;;;;;;15.24;67.12;99464.16;1259396;23;682;-67
2023/04/24 00:30:53;;;;;;;;;;;;;;;15.17;66.63;99463.97;1261314;23;681;-67
2023/04/24 00:31:44;;;;;;;;;;;;;;;15.21;67.23;99469.88;1260892;23;692;-68
2023/04/24 00:32:34;;;;;;;;;;;;;;;15.23;67.20;99468.66;1261109;23;618;-68
2023/04/24 00:33:25;;;;;;;;;;;;;;;15.18;66.33;99478.22;1259332;23;611;-68
2023/04/24 00:34:15;;;;;;;;;;;;;;;15.13;66.61;99472.50;1258933;23;630;-68
2023/04/24 00:35:06;;;;;;;;;;;;;;;15.01;67.08;99473.81;1259303;23;680;-68
2023/04/24 00:35:56;;;;;;;;;;;;;;;15.03;67.17;99478.00;1259417;23;623;-68
2023/04/24 00:36:48;;;;;;;;;;;;;;;15.10;66.43;99478.19;1259452;23;736;-67
2023/04/24 00:37:39;;;;;;;;;;;;;;;15.05;67.01;99478.66;1259536;23;666;-68
2023/04/24 00:38:30;;;;;;;;;;;;;;;15.13;67.38;99477.88;1259329;23;670;-68
2023/04/24 00:39:20;;;;;;;;;;;;;;;15.01;66.22;99482.69;1259261;23;546;-68
2023/04/24 00:40:11;;;;;;;;;;;;;;;14.87;66.37;99484.13;1259300;23;630;-68
2023/04/24 00:41:01;;;;;;;;;;;;;;;14.89;67.07;99487.50;1259097;23;603;-68
2023/04/24 00:41:52;;;;;;;;;;;;;;;14.83;67.07;99482.78;1259307;23;670;-68
2023/04/24 00:42:42;;;;;;;;;;;;;;;14.88;67.14;99483.13;1260903;23;650;-68
2023/04/24 00:43:33;;;;;;;;;;;;;;;14.97;66.92;99497.44;1261030;23;689;-67
2023/04/24 00:44:23;;;;;;;;;;;;;;;14.83;67.15;99482.78;1259042;23;839;-68
2023/04/24 00:45:14;;;;;;;;;;;;;;;14.87;67.65;99494.84;1259418;23;756;-69
2023/04/24 00:46:04;;;;;;;;;;;;;;;14.90;68.10;99489.16;1260179;23;736;-68
2023/04/24 00:46:55;;;;;;;;;;;;;;;15.00;67.39;99488.22;1259680;23;704;-68
2023/04/24 00:47:45;;;;;;;;;;;;;;;15.01;67.56;99492.59;1259941;23;697;-68
2023/04/24 00:48:35;;;;;;;;;;;;;;;15.19;67.05;99493.34;1259002;23;615;-68
2023/04/24 00:49:26;;;;;;;;;;;;;;;15.13;66.68;99488.59;1259881;23;657;-68
2023/04/24 00:50:17;;;;;;;;;;;;;;;14.98;66.90;99492.91;1259801;23;642;-68
2023/04/24 00:51:07;;;;;;;;;;;;;;;14.92;67.20;99489.00;1259579;23;623;-68
2023/04/24 00:51:59;;;;;;;;;;;;;;;14.85;66.98;99496.88;1260012;23;693;-68
2023/04/24 00:52:49;;;;;;;;;;;;;;;14.99;67.33;99505.31;1261921;23;696;-68
2023/04/24 00:53:40;;;;;;;;;;;;;;;14.85;67.31;99494.19;1260949;23;681;-68
2023/04/24 00:54:30;;;;;;;;;;;;;;;14.89;67.93;99492.84;1261297;23;650;-68
2023/04/24 00:55:21;;;;;;;;;;;;;;;14.98;67.88;99496.44;1261186;23;646;-68
2023/04/24 00:56:11;;;;;;;;;;;;;;;14.94;66.86;99497.75;1261460;23;968;-68
2023/04/24 00:57:02;;;;;;;;;;;;;;;14.89;67.13;99503.59;1259837;23;1942;-68
2023/04/24 00:57:52;;;;;;;;;;;;;;;14.85;67.05;99506.75;1260650;23;662;-68
2023/04/24 00:58:43;;;;;;;;;;;;;;;14.81;67.25;99505.41;1261934;23;637;-68
2023/04/24 00:59:33;;;;;;;;;;;;;;;14.87;67.96;99505.56;1260918;23;661;-69
2023/04/24 01:00:24;;;;;;;;;;;;;;;14.93;67.49;99512.16;1261094;23;662;-68
2023/04/24 01:01:14;;;;;;;;;;;;;;;14.93;66.89;99512.16;1260957;23;629;-69
2023/04/24 01:02:05;;;;;;;;;;;;;;;14.84;67.29;99516.66;1261218;23;665;-68
2023/04/24 01:02:55;;;;;;;;;;;;;;;14.83;66.98;99514.97;1261172;23;606;-69
2023/04/24 01:03:46;;;;;;;;;;;;;;;14.86;67.58;99514.66;1260954;23;748;-69
2023/04/24 01:04:36;;;;;;;;;;;;;;;14.81;67.61;99513.44;1261306;23;614;-68
2023/04/24 01:05:27;;;;;;;;;;;;;;;14.84;67.64;99513.97;1259592;23;658;-68
2023/04/24 01:06:17;;;;;;;;;;;;;;;14.83;67.18;99512.28;1259759;23;682;-68
2023/04/24 01:07:10;;;;;;;;;;;;;;;14.77;67.18;99512.91;1259972;23;622;-68
2023/04/24 01:08:00;;;;;;;;;;;;;;;14.72;68.04;99520.59;1259836;23;678;-68
2023/04/24 01:08:51;;;;;;;;;;;;;;;14.79;66.87;99518.97;1261796;23;642;-68
2023/04/24 01:09:41;;;;;;;;;;;;;;;14.73;67.80;99510.69;1260872;23;729;-69
2023/04/24 01:10:32;;;;;;;;;;;;;;;14.71;67.47;99513.53;1261267;23;614;-68
2023/04/24 01:11:22;;;;;;;;;;;;;;;14.77;67.90;99518.28;1259566;23;820;-69
2023/04/24 01:12:13;;;;;;;;;;;;;;;14.75;67.56;99531.00;1259993;23;618;-67
2023/04/24 01:13:03;;;;;;;;;;;;;;;14.80;67.74;99520.66;1259723;23;949;-68
2023/04/24 01:13:54;;;;;;;;;;;;;;;14.84;67.82;99524.69;1259953;23;618;-68
2023/04/24 01:14:44;;;;;;;;;;;;;;;14.93;67.30;99525.56;1261515;23;748;-68
2023/04/24 01:15:35;;;;;;;;;;;;;;;14.89;67.66;99525.03;1261915;23;657;-68
2023/04/24 01:16:25;;;;;;;;;;;;;;;14.87;66.98;99527.03;1261072;23;708;-68
2023/04/24 01:17:16;;;;;;;;;;;;;;;14.74;67.50;99521.28;1260276;23;1937;-68
2023/04/24 01:18:06;;;;;;;;;;;;;;;14.75;68.33;99525.63;1261650;23;669;-69
2023/04/24 01:18:57;;;;;;;;;;;;;;;14.75;67.11;99528.31;1259568;23;615;-68
2023/04/24 01:19:47;;;;;;;;;;;;;;;14.76;67.70;99524.63;1259451;23;611;-68
2023/04/24 01:20:39;;;;;;;;;;;;;;;14.72;67.58;99522.41;1259283;23;1099;-69
2023/04/24 01:21:30;;;;;;;;;;;;;;;14.64;67.18;99530.44;1261292;23;696;-69
2023/04/24 01:22:20;;;;;;;;;;;;;;;14.65;67.76;99524.91;1259348;23;659;-68
2023/04/24 01:23:11;;;;;;;;;;;;;;;14.64;67.41;99525.91;1259649;23;677;-68
2023/04/24 01:24:01;;;;;;;;;;;;;;;14.65;68.32;99534.78;1259919;23;666;-68
2023/04/24 01:24:52;;;;;;;;;;;;;;;14.59;67.66;99533.56;1259938;23;908;-68
2023/04/24 01:25:43;;;;;;;;;;;;;;;14.52;67.54;99533.34;1259858;23;701;-68
2023/04/24 01:26:33;;;;;;;;;;;;;;;14.48;68.06;99529.31;1259562;23;639;-69
2023/04/24 01:27:24;;;;;;;;;;;;;;;14.66;68.26;99533.81;1259832;23;665;-68
2023/04/24 01:28:14;;;;;;;;;;;;;;;14.80;68.10;99534.06;1260074;23;702;-68
2023/04/24 01:29:05;;;;;;;;;;;;;;;14.73;67.22;99529.47;1261192;23;611;-68
2023/04/24 01:29:55;;;;;;;;;;;;;;;14.82;66.82;99533.91;1259808;23;697;-67
2023/04/24 01:30:45;;;;;;;;;;;;;;;14.73;66.67;99533.00;1259577;23;654;-67
2023/04/24 01:31:36;;;;;;;;;;;;;;;14.73;67.01;99533.00;1259739;23;768;-69
2023/04/24 01:32:26;;;;;;;;;;;;;;;14.67;67.39;99536.31;1259663;23;705;-67
2023/04/24 01:33:17;;;;;;;;;;;;;;;14.68;67.55;99537.16;1260360;23;819;-69
2023/04/24 01:34:07;;;;;;;;;;;;;;;14.75;67.62;99522.09;1261042;23;713;-68
2023/04/24 01:34:58;;;;;;;;;;;;;;;14.74;66.69;99525.78;1261252;23;693;-68
2023/04/24 01:35:48;;;;;;;;;;;;;;;14.80;68.14;99526.00;1259523;23;623;-68
2023/04/24 01:36:39;;;;;;;;;;;;;;;14.92;67.36;99532.78;1261276;23;684;-68
2023/04/24 01:37:31;;;;;;;;;;;;;;;14.97;67.41;99526.94;1259384;23;627;-68
2023/04/24 01:38:21;;;;;;;;;;;;;;;14.88;66.33;99534.09;1259510;23;607;-69
2023/04/24 01:39:12;;;;;;;;;;;;;;;14.74;67.56;99532.00;1259865;23;654;-69
2023/04/24 01:40:03;;;;;;;;;;;;;;;14.67;67.30;99530.13;1260551;23;673;-69
2023/04/24 01:40:53;;;;;;;;;;;;;;;14.64;67.07;99530.44;1259799;23;651;-70
2023/04/24 01:41:44;;;;;;;;;;;;;;;14.82;68.10;99528.53;1259842;23;593;-69
2023/04/24 01:42:34;;;;;;;;;;;;;;;14.85;67.76;99528.22;1259813;23;626;-69
2023/04/24 01:43:25;;;;;;;;;;;;;;;14.87;67.26;99535.09;1259364;23;682;-69
2023/04/24 01:44:15;;;;;;;;;;;;;;;14.66;67.07;99534.66;1259503;23;678;-69
2023/04/24 01:45:06;;;;;;;;;;;;;;;14.64;67.52;99530.44;1259465;23;623;-69
2023/04/24 01:45:56;;;;;;;;;;;;;;;14.55;67.25;99533.03;1261278;23;657;-69
2023/04/24 01:46:46;;;;;;;;;;;;;;;14.62;68.27;99532.44;1261126;23;674;-69
2023/04/24 01:47:37;;;;;;;;;;;;;;;14.83;67.86;99533.75;1260936;23;693;-69
2023/04/24 01:48:28;;;;;;;;;;;;;;;14.97;67.44;99536.81;1261255;23;634;-70
2023/04/24 01:49:18;;;;;;;;;;;;;;;15.01;66.75;99539.03;1261582;23;748;-69
2023/04/24 01:50:08;;;;;;;;;;;;;;;14.99;66.24;99541.03;1260874;23;637;-69
2023/04/24 01:50:59;;;;;;;;;;;;;;;14.79;66.74;99535.06;1261474;23;682;-69
2023/04/24 01:51:49;;;;;;;;;;;;;;;14.81;67.87;99534.91;1259716;23;674;-69
2023/04/24 01:52:40;;;;;;;;;;;;;;;14.72;66.72;99536.66;1261279;23;688;-69
2023/04/24 01:53:30;;;;;;;;;;;;;;;14.71;67.39;99542.19;1259311;23;631;-69
2023/04/24 01:54:21;;;;;;;;;;;;;;;14.68;66.78;99534.50;1259608;23;554;-69
2023/04/24 01:55:11;;;;;;;;;;;;;;;14.66;68.06;99540.00;1259959;23;733;-70
2023/04/24 01:56:01;;;;;;;;;;;;;;;14.75;67.18;99538.19;1259745;23;682;-70
2023/04/24 01:56:52;;;;;;;;;;;;;;;14.80;67.90;99536.75;1259418;23;626;-70
2023/04/24 01:57:43;;;;;;;;;;;;;;;14.88;66.87;99544.81;1259969;23;659;-69
2023/04/24 01:58:33;;;;;;;;;;;;;;;14.70;67.42;99541.34;1260293;23;622;-69
2023/04/24 01:59:24;;;;;;;;;;;;;;;14.56;67.30;99541.94;1259612;23;705;-70
2023/04/24 02:00:14;;;;;;;;;;;;;;;14.54;67.58;99550.13;1259545;23;687;-69
2023/04/24 02:01:05;;;;;;;;;;;;;;;14.55;67.76;99545.59;1259418;23;666;-70
2023/04/24 02:01:55;;;;;;;;;;;;;;;14.59;68.66;99545.16;1259545;23;622;-70
2023/04/24 02:02:46;;;;;;;;;;;;;;;14.79;67.69;99551.16;1259556;23;650;-69
2023/04/24 02:03:36;;;;;;;;;;;;;;;14.91;68.15;99547.19;1261333;23;634;-70
2023/04/24 02:04:27;;;;;;;;;;;;;;;14.95;67.43;99539.66;1259440;23;814;-69
2023/04/24 02:05:17;;;;;;;;;;;;;;;14.98;67.55;99546.56;1259547;23;674;-68
2023/04/24 02:06:07;;;;;;;;;;;;;;;14.85;67.04;99539.78;1259275;23;639;-68
2023/04/24 02:06:58;;;;;;;;;;;;;;;14.74;66.90;99542.72;1259639;23;662;-68
2023/04/24 02:07:48;;;;;;;;;;;;;;;14.63;67.50;99540.31;1259243;23;603;-69
2023/04/24 02:08:39;;;;;;;;;;;;;;;14.50;66.95;99538.06;1259356;23;639;-69
2023/04/24 02:09:29;;;;;;;;;;;;;;;14.55;69.01;99542.94;1259167;23;696;-69
2023/04/24 02:10:20;;;;;;;;;;;;;;;14.73;67.80;99540.19;1259636;23;673;-68
2023/04/24 02:11:10;;;;;;;;;;;;;;;14.63;66.92;99539.47;1259217;23;729;-69
2023/04/24 02:12:01;;;;;;;;;;;;;;;14.45;67.15;99540.34;1259409;23;887;-69
2023/04/24 02:12:51;;;;;;;;;;;;;;;14.62;68.45;99538.63;1259565;23;643;-69
2023/04/24 02:13:41;;;;;;;;;;;;;;;14.75;68.25;99543.56;1259315;23;658;-69
2023/04/24 02:14:32;;;;;;;;;;;;;;;14.76;67.20;99540.72;1261552;23;685;-69
2023/04/24 02:15:22;;;;;;;;;;;;;;;14.92;67.61;99538.13;1260355;23;642;-69
2023/04/24 02:16:13;;;;;;;;;;;;;;;14.98;66.58;99551.91;1261307;23;649;-69
2023/04/24 02:17:04;;;;;;;;;;;;;;;14.92;66.95;99551.56;1259107;23;1889;-69
2023/04/24 02:17:55;;;;;;;;;;;;;;;14.83;66.82;99549.84;1260155;23;671;-68
2023/04/24 02:18:45;;;;;;;;;;;;;;;14.73;68.26;99551.75;1259603;23;697;-69
2023/04/24 02:19:36;;;;;;;;;;;;;;;14.78;67.60;99549.47;1259383;23;719;-69
2023/04/24 02:20:26;;;;;;;;;;;;;;;14.68;66.90;99542.53;1259348;23;939;-68
2023/04/24 02:21:16;;;;;;;;;;;;;;;14.75;68.17;99547.09;1259521;23;643;-69
2023/04/24 02:22:07;;;;;;;;;;;;;;;14.92;67.99;99550.72;1259350;23;669;-68
2023/04/24 02:22:57;;;;;;;;;;;;;;;14.92;67.12;99550.72;1259133;23;689;-69
2023/04/24 02:23:48;;;;;;;;;;;;;;;14.98;67.95;99550.09;1259593;23;607;-69
2023/04/24 02:24:38;;;;;;;;;;;;;;;14.87;67.43;99548.50;1259541;23;618;-67
2023/04/24 02:25:28;;;;;;;;;;;;;;;14.72;66.93;99555.44;1259166;23;654;-67
2023/04/24 02:26:19;;;;;;;;;;;;;;;14.59;67.15;99544.31;1259458;23;649;-68
2023/04/24 02:27:10;;;;;;;;;;;;;;;14.63;67.64;99544.84;1259399;23;670;-70
2023/04/24 02:28:00;;;;;;;;;;;;;;;14.61;67.07;99547.66;1259618;23;634;-68
2023/04/24 02:28:50;;;;;;;;;;;;;;;14.57;66.95;99560.53;1261868;23;680;-68
2023/04/24 02:29:41;;;;;;;;;;;;;;;14.43;67.40;99549.53;1261082;23;903;-67
2023/04/24 02:30:31;;;;;;;;;;;;;;;14.45;67.43;99545.72;1261291;23;649;-69
2023/04/24 02:31:22;;;;;;;;;;;;;;;14.47;67.77;99550.94;1259696;23;623;-69
2023/04/24 02:32:12;;;;;;;;;;;;;;;14.60;67.24;99545.97;1259597;23;670;-68
2023/04/24 02:33:03;;;;;;;;;;;;;;;14.73;67.33;99546.41;1259445;23;651;-70
2023/04/24 02:33:53;;;;;;;;;;;;;;;14.73;66.95;99556.28;1259446;23;611;-68
2023/04/24 02:34:44;;;;;;;;;;;;;;;14.64;66.97;99550.03;1261839;23;641;-68
2023/04/24 02:35:34;;;;;;;;;;;;;;;14.53;66.78;99552.97;1260760;23;661;-68
2023/04/24 02:36:25;;;;;;;;;;;;;;;14.62;68.66;99553.88;1261380;23;629;-69
2023/04/24 02:37:15;;;;;;;;;;;;;;;14.56;67.54;99552.66;1261579;23;1901;-68
2023/04/24 02:38:05;;;;;;;;;;;;;;;14.63;66.70;99553.72;1260745;23;587;-68
2023/04/24 02:38:56;;;;;;;;;;;;;;;14.47;68.39;99554.44;1261051;23;650;-68
2023/04/24 02:39:46;;;;;;;;;;;;;;;14.53;67.28;99555.63;1259144;23;615;-68
2023/04/24 02:40:37;;;;;;;;;;;;;;;14.44;68.27;99553.91;1259346;23;623;-69
2023/04/24 02:41:32;;;;;;;;;;;;;;;14.59;68.49;99552.34;1260922;23;689;-69
2023/04/24 02:42:22;;;;;;;;;;;;;;;14.63;66.97;99556.41;1259485;23;741;-68
2023/04/24 02:43:13;;;;;;;;;;;;;;;14.83;68.26;99557.03;1259549;23;626;-69
2023/04/24 02:44:03;;;;;;;;;;;;;;;14.72;67.07;99552.75;1261813;23;661;-68
2023/04/24 02:44:54;;;;;;;;;;;;;;;14.54;66.58;99557.31;1260925;23;621;-69
2023/04/24 02:45:44;;;;;;;;;;;;;;;14.48;67.06;99557.97;1261093;23;622;-69
2023/04/24 02:46:35;;;;;;;;;;;;;;;14.61;67.95;99552.19;1259400;23;650;-69
2023/04/24 02:47:25;;;;;;;;;;;;;;;14.82;67.71;99560.72;1259453;23;641;-69
2023/04/24 02:48:16;;;;;;;;;;;;;;;14.63;67.07;99559.09;1261121;23;665;-70
2023/04/24 02:49:07;;;;;;;;;;;;;;;14.64;67.13;99558.09;1259700;23;638;-69
2023/04/24 02:49:57;;;;;;;;;;;;;;;14.82;68.26;99564.25;1259460;23;619;-69
2023/04/24 02:50:48;;;;;;;;;;;;;;;14.68;67.85;99551.41;1259654;23;678;-69
2023/04/24 02:51:40;;;;;;;;;;;;;;;14.58;67.53;99553.34;1261173;23;701;-70
2023/04/24 02:52:31;;;;;;;;;;;;;;;14.59;67.43;99549.66;1259454;23;859;-69
2023/04/24 02:53:22;;;;;;;;;;;;;;;14.68;68.18;99559.47;1260203;23;685;-69
2023/04/24 02:54:13;;;;;;;;;;;;;;;14.71;67.30;99551.06;1259278;23;619;-69
2023/04/24 02:55:03;;;;;;;;;;;;;;;14.73;66.72;99554.44;1259553;23;682;-70
2023/04/24 02:55:53;;;;;;;;;;;;;;;14.82;67.76;99550.00;1259207;23;752;-69
2023/04/24 02:56:44;;;;;;;;;;;;;;;14.72;66.72;99554.59;1259549;23;717;-69
2023/04/24 02:57:35;;;;;;;;;;;;;;;14.73;67.15;99553.59;1259149;23;650;-69
2023/04/24 02:58:25;;;;;;;;;;;;;;;14.77;67.74;99554.97;1259705;23;670;-69
2023/04/24 02:59:15;;;;;;;;;;;;;;;14.78;67.03;99549.47;1258590;23;658;-69
2023/04/24 03:00:07;;;;;;;;;;;;;;;14.71;67.72;99552.91;1261830;23;661;-69
2023/04/24 03:00:57;;;;;;;;;;;;;;;14.73;68.20;99549.09;1261037;23;876;-69
2023/04/24 03:01:47;;;;;;;;;;;;;;;14.96;67.76;99553.91;1260551;23;642;-69
2023/04/24 03:02:38;;;;;;;;;;;;;;;15.12;67.54;99548.63;1261036;23;685;-69
2023/04/24 03:03:28;;;;;;;;;;;;;;;15.23;66.59;99549.19;1259397;23;670;-69
2023/04/24 03:04:20;;;;;;;;;;;;;;;15.15;65.82;99540.28;1259627;23;710;-69
2023/04/24 03:05:11;;;;;;;;;;;;;;;14.97;66.37;99552.91;1261390;23;705;-68
2023/04/24 03:06:02;;;;;;;;;;;;;;;14.76;66.17;99548.78;1260982;23;621;-69
2023/04/24 03:06:54;;;;;;;;;;;;;;;14.64;67.25;99547.34;1261164;23;670;-69
2023/04/24 03:07:45;;;;;;;;;;;;;;;14.55;66.94;99553.66;1259535;23;784;-69
2023/04/24 03:08:35;;;;;;;;;;;;;;;14.58;67.60;99553.34;1260156;23;669;-69
2023/04/24 03:09:26;;;;;;;;;;;;;;;14.68;67.27;99554.09;1259594;23;610;-69
2023/04/24 03:10:16;;;;;;;;;;;;;;;14.67;67.57;99554.25;1261708;23;642;-69
2023/04/24 03:11:07;;;;;;;;;;;;;;;14.78;68.31;99553.97;1260849;23;620;-69
2023/04/24 03:11:58;;;;;;;;;;;;;;;14.87;67.30;99556.53;1260887;23;626;-69
2023/04/24 03:12:48;;;;;;;;;;;;;;;14.71;66.33;99555.59;1259498;23;627;-69
2023/04/24 03:13:39;;;;;;;;;;;;;;;14.67;68.03;99552.41;1258710;23;675;-69
2023/04/24 03:14:31;;;;;;;;;;;;;;;14.73;67.25;99553.59;1259262;23;615;-70
2023/04/24 03:15:21;;;;;;;;;;;;;;;14.76;68.33;99555.97;1259439;23;686;-69
2023/04/24 03:16:12;;;;;;;;;;;;;;;14.93;66.68;99563.97;1259282;23;666;-69
2023/04/24 03:17:02;;;;;;;;;;;;;;;14.66;66.28;99558.78;1259447;23;1934;-69
2023/04/24 03:17:52;;;;;;;;;;;;;;;14.61;66.76;99555.72;1260068;23;611;-69
2023/04/24 03:18:43;;;;;;;;;;;;;;;14.64;68.05;99552.72;1259423;23;611;-69
2023/04/24 03:19:33;;;;;;;;;;;;;;;14.88;67.25;99557.38;1259393;23;682;-69
2023/04/24 03:20:24;;;;;;;;;;;;;;;14.83;67.72;99554.34;1262952;23;1088;-68
2023/04/24 03:21:14;;;;;;;;;;;;;;;14.92;67.26;99556.06;1266131;23;682;-69
2023/04/24 03:22:05;;;;;;;;;;;;;;;14.98;67.54;99558.13;1260601;23;551;-69
2023/04/24 03:22:56;;;;;;;;;;;;;;;14.95;67.40;99555.75;1259735;23;682;-69
2023/04/24 03:23:47;;;;;;;;;;;;;;;14.90;67.64;99553.53;1267017;23;680;-69
2023/04/24 03:24:37;;;;;;;;;;;;;;;15.08;67.28;99553.47;1265931;23;618;-69
2023/04/24 03:25:28;;;;;;;;;;;;;;;15.10;67.14;99553.31;1260247;23;634;-68
2023/04/24 03:26:18;;;;;;;;;;;;;;;14.94;66.97;99554.91;1259547;23;654;-68
2023/04/24 03:27:09;;;;;;;;;;;;;;;15.07;67.02;99553.63;1259249;23;622;-68
2023/04/24 03:27:59;;;;;;;;;;;;;;;15.03;67.33;99552.28;1258915;23;666;-68
2023/04/24 03:28:49;;;;;;;;;;;;;;;15.18;67.50;99556.06;1259341;23;674;-68
2023/04/24 03:29:40;;;;;;;;;;;;;;;15.13;66.78;99553.00;1259673;23;677;-69
2023/04/24 03:30:31;;;;;;;;;;;;;;;15.13;66.91;99553.84;1266961;23;719;-68
2023/04/24 03:31:21;;;;;;;;;;;;;;;15.09;66.80;99557.84;1266190;23;685;-68
2023/04/24 03:32:12;;;;;;;;;;;;;;;15.15;67.29;99557.22;1260170;23;654;-69
2023/04/24 03:33:02;;;;;;;;;;;;;;;15.18;67.24;99556.91;1259532;23;681;-68
2023/04/24 03:33:53;;;;;;;;;;;;;;;14.91;65.96;99555.22;1259345;23;665;-68
2023/04/24 03:34:43;;;;;;;;;;;;;;;14.84;67.63;99559.56;1261082;23;641;-68
2023/04/24 03:35:34;;;;;;;;;;;;;;;14.79;67.87;99555.66;1259523;23;615;-68
2023/04/24 03:36:25;;;;;;;;;;;;;;;14.90;67.74;99558.06;1259515;23;662;-68
2023/04/24 03:37:16;;;;;;;;;;;;;;;15.11;67.57;99561.22;1261088;23;1948;-68
2023/04/24 03:38:06;;;;;;;;;;;;;;;14.87;67.15;99556.53;1260497;23;630;-68
2023/04/24 03:38:57;;;;;;;;;;;;;;;14.71;67.61;99556.44;1259475;23;635;-68
2023/04/24 03:39:47;;;;;;;;;;;;;;;14.66;67.69;99556.09;1259629;23;666;-67
2023/04/24 03:40:37;;;;;;;;;;;;;;;14.76;68.36;99556.81;1259154;23;669;-68
2023/04/24 03:41:28;;;;;;;;;;;;;;;14.82;68.30;99556.19;1259462;23;697;-68
2023/04/24 03:42:18;;;;;;;;;;;;;;;15.08;67.92;99555.31;1259171;23;639;-69
2023/04/24 03:43:09;;;;;;;;;;;;;;;15.22;67.33;99547.53;1259287;23;614;-69
2023/04/24 03:44:00;;;;;;;;;;;;;;;15.17;66.39;99557.06;1259490;23;618;-69
2023/04/24 03:44:50;;;;;;;;;;;;;;;15.10;67.67;99548.78;1259818;23;682;-69
2023/04/24 03:45:41;;;;;;;;;;;;;;;15.19;67.72;99552.38;1259282;23;631;-69
2023/04/24 03:46:31;;;;;;;;;;;;;;;15.25;67.34;99557.06;1266623;23;697;-69
2023/04/24 03:47:22;;;;;;;;;;;;;;;15.00;66.73;99549.94;1265811;23;657;-69
2023/04/24 03:48:12;;;;;;;;;;;;;;;14.97;68.12;99547.56;1260251;23;673;-69
2023/04/24 03:49:02;;;;;;;;;;;;;;;15.05;67.45;99556.47;1266999;23;630;-69
2023/04/24 03:49:55;;;;;;;;;;;;;;;14.99;67.73;99550.94;1266144;23;1223;-69
2023/04/24 03:50:45;;;;;;;;;;;;;;;15.13;67.89;99547.63;1260292;23;637;-69
2023/04/24 03:51:36;;;;;;;;;;;;;;;15.13;66.84;99544.94;1259700;23;639;-69
2023/04/24 03:52:27;;;;;;;;;;;;;;;15.13;67.22;99558.38;1259654;23;666;-69
2023/04/24 03:53:17;;;;;;;;;;;;;;;15.12;67.42;99546.78;1261217;23;692;-69
2023/04/24 03:54:07;;;;;;;;;;;;;;;14.96;66.74;99548.56;1259210;23;638;-69
2023/04/24 03:54:58;;;;;;;;;;;;;;;14.92;66.81;99551.56;1259348;23;658;-69
2023/04/24 03:55:48;;;;;;;;;;;;;;;15.01;68.15;99546.25;1266669;23;708;-69
2023/04/24 03:56:39;;;;;;;;;;;;;;;15.03;67.24;99547.78;1265727;23;670;-69
2023/04/24 03:57:29;;;;;;;;;;;;;;;14.95;67.43;99553.06;1260150;23;1937;-69
2023/04/24 03:58:20;;;;;;;;;;;;;;;14.88;67.29;99550.19;1260355;23;662;-69
2023/04/24 03:59:10;;;;;;;;;;;;;;;14.84;67.71;99554.19;1266740;23;747;-69
2023/04/24 04:00:02;;;;;;;;;;;;;;;14.94;67.88;99548.72;1260103;23;626;-69
2023/04/24 04:00:52;;;;;;;;;;;;;;;14.80;68.25;99547.47;1260597;23;634;-69
2023/04/24 04:01:43;;;;;;;;;;;;;;;14.91;67.36;99547.19;1260887;23;640;-69
2023/04/24 04:02:33;;;;;;;;;;;;;;;15.00;68.18;99545.41;1259551;23;657;-69
2023/04/24 04:03:25;;;;;;;;;;;;;;;15.08;67.97;99549.94;1259232;23;662;-69
2023/04/24 04:04:15;;;;;;;;;;;;;;;15.19;67.10;99555.06;1261004;23;646;-70
2023/04/24 04:05:06;;;;;;;;;;;;;;;15.10;66.73;99548.78;1259143;23;623;-70
2023/04/24 04:05:56;;;;;;;;;;;;;;;14.97;67.41;99559.13;1259451;23;796;-70
2023/04/24 04:06:47;;;;;;;;;;;;;;;14.94;67.76;99560.28;1259169;23;733;-70
2023/04/24 04:07:37;;;;;;;;;;;;;;;14.99;68.07;99561.66;1259509;23;673;-70
2023/04/24 04:08:27;;;;;;;;;;;;;;;15.13;67.81;99563.75;1259054;23;618;-70
2023/04/24 04:09:18;;;;;;;;;;;;;;;15.28;67.52;99562.13;1259337;23;685;-70
2023/04/24 04:10:08;;;;;;;;;;;;;;;15.33;67.24;99557.13;1259182;23;649;-70
2023/04/24 04:10:59;;;;;;;;;;;;;;;15.43;67.04;99562.34;1259432;23;686;-70
2023/04/24 04:11:49;;;;;;;;;;;;;;;15.39;66.92;99566.38;1259575;23;681;-69
2023/04/24 04:12:40;;;;;;;;;;;;;;;15.44;66.78;99564.88;1259563;23;660;-70
2023/04/24 04:13:30;;;;;;;;;;;;;;;15.37;67.18;99569.22;1266353;23;739;-70
2023/04/24 04:14:21;;;;;;;;;;;;;;;15.39;67.02;99564.53;1259709;23;606;-70
2023/04/24 04:15:11;;;;;;;;;;;;;;;15.33;65.96;99569.69;1260549;23;637;-70
2023/04/24 04:16:02;;;;;;;;;;;;;;;15.34;67.22;99576.75;1260918;23;637;-70
2023/04/24 04:16:52;;;;;;;;;;;;;;;15.35;66.91;99570.38;1259403;23;669;-70
2023/04/24 04:17:42;;;;;;;;;;;;;;;15.39;67.09;99574.44;1259181;23;740;-70
2023/04/24 04:18:33;;;;;;;;;;;;;;;15.33;65.69;99580.44;1259576;23;630;-70
2023/04/24 04:19:23;;;;;;;;;;;;;;;15.33;67.03;99581.28;1259822;23;638;-70
2023/04/24 04:20:14;;;;;;;;;;;;;;;15.40;67.37;99574.28;1259563;23;653;-70
2023/04/24 04:21:04;;;;;;;;;;;;;;;15.40;67.11;99587.69;1259454;23;627;-70
2023/04/24 04:21:56;;;;;;;;;;;;;;;15.36;66.94;99588.19;1260857;23;665;-70
2023/04/24 04:22:46;;;;;;;;;;;;;;;15.33;67.28;99581.28;1258920;23;773;-69
2023/04/24 04:23:36;;;;;;;;;;;;;;;15.38;67.55;99589.69;1267015;23;664;-70
2023/04/24 04:24:28;;;;;;;;;;;;;;;15.45;67.19;99585.34;1266285;23;658;-70
2023/04/24 04:25:19;;;;;;;;;;;;;;;15.52;67.32;99583.72;1260608;23;649;-70
2023/04/24 04:26:09;;;;;;;;;;;;;;;15.51;66.88;99583.88;1259378;23;665;-70
2023/04/24 04:27:00;;;;;;;;;;;;;;;15.44;66.04;99588.19;1259960;23;634;-70
2023/04/24 04:27:51;;;;;;;;;;;;;;;15.43;67.17;99586.50;1260006;23;697;-70
2023/04/24 04:28:41;;;;;;;;;;;;;;;15.44;66.61;99583.66;1261556;23;692;-70
2023/04/24 04:29:31;;;;;;;;;;;;;;;15.46;66.97;99592.41;1259808;23;705;-70
2023/04/24 04:30:23;;;;;;;;;;;;;;;15.51;67.07;99591.94;1259673;23;649;-70